Time;durP1;ratioP1;P1;durP2;ratioP2;P2;SDS_P1;SDS_P2;PMS_P1;PMS_P2;Temp;Humidity;BMP_temperature;BMP_pressure;BME280_temperature;BME280_humidity;BME280_pressure;Samples;Min_cycle;Max_cycle;Signal;HPM_P1;HPM_P2
2021/07/01 00:02:05;;;;;;;12.55;7.43;;;;;;;18.09;63.91;101376.91;4990393;28;118149;-62
2021/07/01 00:04:32;;;;;;;11.98;7.47;;;;;;;18.08;63.82;101377.88;5008547;28;119326;-62
2021/07/01 00:06:59;;;;;;;12.18;7.47;;;;;;;18.09;64.17;101381.41;5007107;28;123113;-62
2021/07/01 00:09:26;;;;;;;13.13;7.22;;;;;;;18.09;64.09;101379.59;5006202;28;124280;-61
2021/07/01 00:11:56;;;;;;;14.68;7.43;;;;;;;18.07;64.25;101376.16;5013257;28;118896;-61
2021/07/01 00:14:24;;;;;;;13.38;7.15;;;;;;;18.06;64.04;101374.47;5005588;28;119464;-61
2021/07/01 00:16:53;;;;;;;14.27;7.13;;;;;;;18.05;64.19;101370.03;5005070;28;124364;-61
2021/07/01 00:19:22;;;;;;;11.15;6.68;;;;;;;18.05;64.10;101372.72;5007145;28;125336;-63
2021/07/01 00:21:51;;;;;;;13.20;6.63;;;;;;;18.04;64.16;101376.34;5008044;28;119821;-63
2021/07/01 00:24:18;;;;;;;11.88;6.35;;;;;;;18.03;64.15;101380.00;5007018;28;119481;-63
2021/07/01 00:26:46;;;;;;;10.98;7.20;;;;;;;18.04;63.99;101380.88;5006782;28;124489;-64
2021/07/01 00:29:13;;;;;;;11.65;6.07;;;;;;;18.03;64.18;101369.28;5004229;28;124236;-63
2021/07/01 00:31:41;;;;;;;11.48;6.40;;;;;;;18.03;64.04;101369.28;5001231;28;120729;-64
2021/07/01 00:34:08;;;;;;;11.60;6.38;;;;;;;18.02;64.14;101367.56;5004679;28;120206;-64
2021/07/01 00:36:35;;;;;;;11.57;5.88;;;;;;;18.03;64.14;101373.81;5008875;28;123913;-64
2021/07/01 00:39:04;;;;;;;10.60;5.85;;;;;;;18.02;64.17;101378.28;5005681;28;124363;-64
2021/07/01 00:41:32;;;;;;;13.05;6.18;;;;;;;18.03;64.21;101385.38;5008074;28;119820;-64
2021/07/01 00:44:02;;;;;;;10.63;6.10;;;;;;;18.01;64.22;101376.59;5008028;28;119767;-65
2021/07/01 00:46:31;;;;;;;8.23;5.50;;;;;;;17.99;64.11;101378.50;5009050;28;124888;-65
2021/07/01 00:48:59;;;;;;;8.70;5.28;;;;;;;17.97;64.13;101380.44;4991648;28;123049;-65
2021/07/01 00:51:26;;;;;;;9.30;4.93;;;;;;;17.92;64.10;101371.84;5010100;28;119585;-66
2021/07/01 00:53:54;;;;;;;11.15;5.28;;;;;;;17.89;64.12;101374.72;5002823;28;119444;-65
2021/07/01 00:56:22;;;;;;;9.43;5.35;;;;;;;17.87;64.20;101368.59;5010252;28;124386;-64
2021/07/01 00:58:54;;;;;;;13.02;5.13;;;;;;;17.84;64.20;101374.16;5004876;28;124609;-65
2021/07/01 01:01:24;;;;;;;8.70;5.40;;;;;;;17.83;64.33;101372.44;5002066;28;118391;-64
2021/07/01 01:03:51;;;;;;;8.35;5.43;;;;;;;17.82;64.27;101376.06;5007306;28;119471;-64
2021/07/01 01:06:19;;;;;;;13.65;5.85;;;;;;;17.81;64.12;101374.34;5011732;28;123268;-64
2021/07/01 01:08:48;;;;;;;9.88;5.40;;;;;;;17.83;64.31;101380.47;5014313;28;123301;-64
2021/07/01 01:11:15;;;;;;;10.88;5.82;;;;;;;17.83;64.32;101378.63;5009372;28;118851;-64
2021/07/01 01:13:45;;;;;;;13.57;6.32;;;;;;;17.82;64.43;101370.69;5009437;28;119583;-64
2021/07/01 01:16:18;;;;;;;14.60;6.10;;;;;;;17.80;64.25;101368.16;5010948;28;124918;-64
2021/07/01 01:18:47;;;;;;;11.05;6.40;;;;;;;17.80;64.41;101372.63;5008615;28;122962;-64
2021/07/01 01:21:16;;;;;;;11.88;6.22;;;;;;;17.78;64.42;101369.19;5008552;28;119349;-64
2021/07/01 01:23:44;;;;;;;13.82;7.03;;;;;;;17.79;64.48;101377.13;5008867;28;118872;-64
2021/07/01 01:26:12;;;;;;;12.20;6.50;;;;;;;17.79;64.49;101370.91;5022845;27;125675;-63
2021/07/01 01:28:46;;;;;;;14.43;6.85;;;;;;;17.80;64.24;101377.97;5007985;28;124220;-63
2021/07/01 01:31:13;;;;;;;13.38;7.25;;;;;;;17.80;64.06;101372.63;4992092;28;118187;-64
2021/07/01 01:33:41;;;;;;;13.02;6.80;;;;;;;17.81;64.18;101379.72;5007250;28;119156;-64
2021/07/01 01:36:09;;;;;;;15.35;7.53;;;;;;;17.81;64.26;101377.03;5013447;28;124424;-64
2021/07/01 01:38:37;;;;;;;15.95;7.57;;;;;;;17.80;64.34;101372.63;5017225;28;123954;-64
2021/07/01 01:41:25;;;;;;;12.90;7.07;;;;;;;17.80;64.26;101380.66;5025257;28;118612;-64
2021/07/01 01:43:54;;;;;;;12.77;6.97;;;;;;;17.79;64.29;101376.28;5009516;28;119551;-64
2021/07/01 01:46:23;;;;;;;14.52;6.40;;;;;;;17.78;64.28;101374.53;5019181;28;98631;-64
2021/07/01 01:48:53;;;;;;;14.45;6.32;;;;;;;17.78;64.27;101379.91;5013333;28;123489;-64
2021/07/01 01:51:21;;;;;;;17.35;6.65;;;;;;;17.76;64.46;101371.13;5013096;28;119471;-64
2021/07/01 01:53:55;;;;;;;13.48;6.30;;;;;;;17.77;64.08;101372.84;5019503;28;121775;-64
2021/07/01 01:56:22;;;;;;;11.38;6.40;;;;;;;17.76;64.31;101365.75;5012362;28;123354;-63
2021/07/01 01:58:50;;;;;;;15.23;6.35;;;;;;;17.74;64.33;101373.03;5008237;28;124225;-62
2021/07/01 02:01:36;;;;;;;13.68;6.00;;;;;;;17.73;64.35;101365.97;5017109;28;120254;-62
2021/07/01 02:04:20;;;;;;;16.45;6.40;;;;;;;17.70;64.18;101367.88;4997993;28;118238;-62
2021/07/01 02:06:50;;;;;;;13.75;5.70;;;;;;;17.69;64.22;101366.19;5019421;28;123313;-62
2021/07/01 02:09:21;;;;;;;13.02;6.20;;;;;;;17.69;64.46;101360.81;4995944;28;123118;-62
2021/07/01 02:11:53;;;;;;;13.93;6.13;;;;;;;17.69;64.44;101366.19;5017554;28;120489;-62
2021/07/01 02:14:22;;;;;;;14.43;6.18;;;;;;;17.70;64.51;101373.22;5019043;28;120081;-62
2021/07/01 02:17:22;;;;;;;13.30;6.10;;;;;;;17.71;64.32;101372.28;4988086;28;124388;-62
2021/07/01 02:19:52;;;;;;;15.68;6.38;;;;;;;17.71;64.33;101368.75;5012150;28;123070;-62
2021/07/01 02:22:19;;;;;;;11.88;6.43;;;;;;;17.70;64.30;101367.88;5016147;28;119564;-63
2021/07/01 02:24:47;;;;;;;14.30;6.20;;;;;;;17.70;64.28;101367.88;5016323;28;118270;-63
2021/07/01 02:27:14;;;;;;;11.38;6.00;;;;;;;17.70;64.28;101362.50;5022730;28;123202;-63
2021/07/01 02:29:42;;;;;;;14.40;6.15;;;;;;;17.69;64.36;101370.69;5013792;28;124529;-63
2021/07/01 02:32:14;;;;;;;16.75;5.93;;;;;;;17.69;64.31;101366.19;5015458;28;118392;-63
2021/07/01 02:34:43;;;;;;;18.25;6.70;;;;;;;17.69;64.31;101376.88;5019713;28;119329;-63
2021/07/01 02:37:29;;;;;;;13.48;6.40;;;;;;;17.68;64.43;101375.16;5018914;28;124725;-63
2021/07/01 02:40:05;;;;;;;12.77;6.43;;;;;;;17.68;64.14;101375.16;5000561;28;123540;-63
2021/07/01 02:42:45;;;;;;;15.93;6.15;;;;;;;17.69;64.40;101381.41;5021399;28;118457;-63
2021/07/01 02:45:13;;;;;;;15.15;6.35;;;;;;;17.68;64.34;101372.47;5018885;28;118623;-63
2021/07/01 02:47:51;;;;;;;14.45;6.25;;;;;;;17.68;64.36;101375.16;5012293;28;126517;-63
2021/07/01 02:50:20;;;;;;;12.43;6.18;;;;;;;17.67;64.35;101373.47;5008330;28;124082;-63
2021/07/01 02:52:47;;;;;;;12.27;6.10;;;;;;;17.66;64.30;101376.22;4993722;28;118606;-63
2021/07/01 02:55:15;;;;;;;14.32;6.25;;;;;;;17.66;64.36;101371.72;4994753;28;118451;-62
2021/07/01 02:57:42;;;;;;;14.57;6.22;;;;;;;17.64;64.20;101370.13;5000040;28;123206;-63
2021/07/01 03:00:16;;;;;;;15.82;6.00;;;;;;;17.65;64.19;101374.50;5014178;28;123133;-63
2021/07/01 03:02:47;;;;;;;11.18;5.68;;;;;;;17.64;64.12;101368.28;4998280;28;119610;-63
2021/07/01 03:05:22;;;;;;;10.73;5.40;;;;;;;17.62;64.21;101370.22;5012894;28;120134;-62
2021/07/01 03:07:50;;;;;;;14.32;5.35;;;;;;;17.61;63.99;101373.00;5014225;28;123533;-63
2021/07/01 03:10:19;;;;;;;12.50;5.60;;;;;;;17.58;63.94;101374.06;5012711;28;124015;-63
2021/07/01 03:12:58;;;;;;;11.02;5.60;;;;;;;17.55;64.08;101368.91;5010979;28;118936;-63
2021/07/01 03:15:26;;;;;;;10.90;4.97;;;;;;;17.53;64.00;101376.19;5013827;28;118248;-63
2021/07/01 03:17:54;;;;;;;10.18;4.63;;;;;;;17.50;64.16;101371.03;5014718;28;124375;-63
2021/07/01 03:20:42;;;;;;;8.75;4.50;;;;;;;17.48;63.63;101372.97;5012958;28;122974;-63
2021/07/01 03:23:27;;;;;;;7.03;4.07;;;;;;;17.45;63.89;101373.16;5020035;28;120108;-63
2021/07/01 03:25:57;;;;;;;10.63;4.97;;;;;;;17.40;63.83;101372.59;5006924;28;119665;-63
2021/07/01 03:28:24;;;;;;;12.68;5.13;;;;;;;17.39;63.94;101373.56;4999569;28;124184;-63
2021/07/01 03:30:52;;;;;;;11.23;4.55;;;;;;;17.39;64.00;101378.91;4996191;28;123831;-62
2021/07/01 03:33:19;;;;;;;9.77;4.68;;;;;;;17.38;63.94;101379.88;5017040;28;119041;-62
2021/07/01 03:35:48;;;;;;;10.40;4.80;;;;;;;17.37;63.77;101370.97;5017463;28;119895;-63
2021/07/01 03:38:53;;;;;;;11.52;4.93;;;;;;;17.35;63.69;101377.38;5015091;28;124663;-63
2021/07/01 03:41:30;;;;;;;11.40;4.60;;;;;;;17.35;63.69;101366.66;5001108;28;124526;-63
2021/07/01 03:43:57;;;;;;;10.48;4.90;;;;;;;17.32;63.88;101379.28;5000574;28;119553;-63
2021/07/01 03:46:25;;;;;;;10.30;5.13;;;;;;;17.34;63.85;101381.03;5006827;28;118814;-63
2021/07/01 03:48:52;;;;;;;11.25;5.20;;;;;;;17.32;63.78;101373.94;5004548;28;124096;-63
2021/07/01 03:51:48;;;;;;;9.45;4.90;;;;;;;17.33;63.83;101385.53;4934318;28;124373;-63
2021/07/01 03:54:33;;;;;;;11.57;5.57;;;;;;;17.30;63.79;101381.22;5012621;28;120020;-64
2021/07/01 03:57:07;;;;;;;14.63;5.43;;;;;;;17.28;63.80;101383.13;5008516;28;120229;-63
2021/07/01 03:59:51;;;;;;;15.18;5.55;;;;;;;17.28;63.82;101383.13;5008702;28;124301;-62
2021/07/01 04:02:50;;;;;;;10.05;5.25;;;;;;;17.29;63.84;101384.88;5016725;28;123918;-63
2021/07/01 04:05:21;;;;;;;10.48;5.57;;;;;;;17.27;63.82;101386.78;5005270;28;120540;-63
2021/07/01 04:07:52;;;;;;;12.73;5.45;;;;;;;17.27;63.81;101381.44;5013069;28;118958;-63
2021/07/01 04:10:39;;;;;;;13.70;5.55;;;;;;;17.27;63.67;101381.44;5013015;28;123958;-62
2021/07/01 04:13:12;;;;;;;10.80;5.38;;;;;;;17.29;64.00;101392.03;5008762;28;124224;-62
2021/07/01 04:16:05;;;;;;;8.55;4.82;;;;;;;17.27;63.86;101386.78;5011397;28;119516;-62
2021/07/01 04:18:51;;;;;;;10.70;5.25;;;;;;;17.27;63.74;101386.78;5013310;28;119687;-62
2021/07/01 04:21:37;;;;;;;11.13;5.53;;;;;;;17.28;63.85;101399.19;5017955;28;124951;-62
2021/07/01 04:24:33;;;;;;;9.82;4.90;;;;;;;17.29;63.68;101400.94;4952643;28;124560;-63
2021/07/01 04:27:13;;;;;;;10.27;5.75;;;;;;;17.27;63.89;101397.50;5014994;28;119953;-62
2021/07/01 04:29:41;;;;;;;9.75;5.25;;;;;;;17.25;63.81;101399.41;5016231;28;119287;-62
2021/07/01 04:32:11;;;;;;;12.43;5.55;;;;;;;17.26;63.82;101406.47;5014290;28;123382;-62
2021/07/01 04:34:39;;;;;;;15.35;6.13;;;;;;;17.24;63.81;101405.72;5016485;28;124631;-63
2021/07/01 04:37:07;;;;;;;11.48;5.70;;;;;;;17.25;63.99;101410.13;5023818;28;119358;-63
2021/07/01 04:39:42;;;;;;;11.82;5.20;;;;;;;17.25;64.10;101412.81;5020275;28;121726;-63
2021/07/01 04:42:14;;;;;;;12.63;5.43;;;;;;;17.26;64.04;101416.34;5016290;28;124761;-64
2021/07/01 04:44:41;;;;;;;10.82;5.72;;;;;;;17.25;63.78;101415.47;5013237;28;124306;-64
2021/07/01 04:47:09;;;;;;;11.05;5.97;;;;;;;17.25;64.10;101415.47;5005050;28;120144;-64
2021/07/01 04:49:38;;;;;;;11.82;5.70;;;;;;;17.24;64.04;101413.75;5012203;28;119064;-64
2021/07/01 04:52:24;;;;;;;;;;;;;;;17.23;63.87;101417.38;5020707;28;124628;-64
2021/07/01 04:55:14;;;;;;;12.02;5.20;;;;;;;17.25;63.81;101410.13;5025284;28;124709;-64
2021/07/01 04:58:07;;;;;;;13.50;5.90;;;;;;;17.26;64.03;101411.81;5010280;28;119278;-63
2021/07/01 05:00:39;;;;;;;12.65;6.40;;;;;;;17.28;64.13;101415.25;5007082;28;118125;-63
2021/07/01 05:03:25;;;;;;;11.18;6.25;;;;;;;17.29;64.29;101411.66;5018922;28;124907;-62
2021/07/01 05:05:53;;;;;;;16.73;6.28;;;;;;;17.31;64.16;101409.72;5013548;28;124853;-63
2021/07/01 05:08:22;;;;;;;16.35;6.63;;;;;;;17.34;64.34;101402.44;5023275;28;119573;-63
2021/07/01 05:10:51;;;;;;;16.02;6.78;;;;;;;17.35;64.36;101402.34;5020351;28;118682;-63
2021/07/01 05:13:20;;;;;;;15.88;6.70;;;;;;;17.38;64.44;101403.97;5020508;28;124760;-64
2021/07/01 05:15:48;;;;;;;14.75;7.18;;;;;;;17.39;64.41;101400.34;5020092;28;122956;-63
2021/07/01 05:18:16;;;;;;;16.65;7.25;;;;;;;17.42;64.92;101394.78;5010052;28;119958;-63
2021/07/01 05:21:04;;;;;;;13.20;7.25;;;;;;;17.45;64.31;101397.25;5011192;28;119868;-63
2021/07/01 05:23:50;;;;;;;16.65;8.15;;;;;;;17.47;64.54;101392.66;5016726;28;124755;-66
2021/07/01 05:26:37;;;;;;;16.80;7.80;;;;;;;17.49;64.60;101390.75;5011557;28;126377;-66
2021/07/01 05:29:25;;;;;;;18.40;8.13;;;;;;;17.53;64.51;101386.88;5014163;28;119593;-65
2021/07/01 05:32:31;;;;;;;;;;;;;;;17.52;64.29;101386.03;5017754;28;119894;-65
2021/07/01 05:35:10;;;;;;;16.08;8.20;;;;;;;17.56;64.21;101397.41;5010040;28;124212;-65
2021/07/01 05:37:46;;;;;;;16.50;7.65;;;;;;;17.56;64.31;101392.06;5012123;28;126039;-64
2021/07/01 05:40:17;;;;;;;18.73;7.93;;;;;;;17.57;64.34;101393.75;5017968;28;119257;-65
2021/07/01 05:42:45;;;;;;;17.83;7.70;;;;;;;17.59;64.59;101396.34;5016806;28;120365;-64
2021/07/01 05:45:12;;;;;;;16.17;7.88;;;;;;;17.62;64.49;101397.00;5011836;28;124980;-64
2021/07/01 05:47:40;;;;;;;15.00;7.78;;;;;;;17.65;64.60;101402.16;5013551;28;124045;-64
2021/07/01 05:50:10;;;;;;;16.83;8.15;;;;;;;17.67;64.67;101397.56;5005245;28;119892;-64
2021/07/01 05:52:39;;;;;;;14.88;7.68;;;;;;;17.69;64.37;101398.31;5003660;28;117891;-65
2021/07/01 05:55:07;;;;;;;13.57;7.93;;;;;;;17.73;64.47;101403.50;5016573;28;124516;-64
2021/07/01 05:57:34;;;;;;;16.58;7.45;;;;;;;17.76;64.38;101403.25;5023929;28;123875;-64
2021/07/01 06:00:05;;;;;;;12.88;7.18;;;;;;;17.75;64.33;101407.78;5016289;28;119454;-64
2021/07/01 06:02:34;;;;;;;16.15;7.65;;;;;;;17.75;64.24;101396.22;5013427;28;119208;-64
2021/07/01 06:05:02;;;;;;;16.27;7.60;;;;;;;17.75;64.35;101391.69;5011759;28;124164;-64
2021/07/01 06:07:56;;;;;;;21.50;7.93;;;;;;;17.77;64.23;101405.00;5017457;28;124641;-64
2021/07/01 06:10:24;;;;;;;12.45;7.25;;;;;;;17.78;64.21;101401.34;5016018;28;119705;-64
2021/07/01 06:12:53;;;;;;;15.45;7.50;;;;;;;17.77;63.95;101399.63;5023448;28;119152;-64
2021/07/01 06:15:20;;;;;;;16.23;7.32;;;;;;;17.78;64.16;101401.34;5024229;28;124580;-64
2021/07/01 06:17:48;;;;;;;13.82;7.60;;;;;;;17.79;63.96;101398.56;5020022;28;124019;-63
2021/07/01 06:20:16;;;;;;;18.60;7.55;;;;;;;17.80;63.99;101399.41;5014909;28;119743;-64
2021/07/01 06:22:45;;;;;;;15.45;7.40;;;;;;;17.79;63.93;101403.06;5014639;28;118218;-63
2021/07/01 06:25:12;;;;;;;15.38;7.13;;;;;;;17.79;63.84;101403.06;5024561;28;124793;-63
2021/07/01 06:27:40;;;;;;;12.85;7.13;;;;;;;17.78;63.94;101406.69;5016697;28;122743;-63
2021/07/01 06:30:15;;;;;;;15.63;6.95;;;;;;;17.78;63.86;101414.72;5010461;28;120852;-63
2021/07/01 06:32:46;;;;;;;14.48;7.05;;;;;;;17.77;63.81;101410.34;5021449;28;120029;-63
2021/07/01 06:35:14;;;;;;;13.85;6.90;;;;;;;17.76;63.70;101405.94;5020471;28;124599;-63
2021/07/01 06:37:42;;;;;;;14.75;6.80;;;;;;;17.74;63.94;101410.53;5010809;28;122995;-63
2021/07/01 06:40:49;;;;;;;;;;;;;;;17.70;63.79;101404.53;4966342;28;120013;-63
2021/07/01 06:43:36;;;;;;;;;;;;;;;17.69;63.78;101409.03;4961368;28;119581;-63
2021/07/01 06:46:25;;;;;;;16.35;7.07;;;;;;;17.70;63.70;101408.06;5006428;27;125055;-63
2021/07/01 06:49:12;;;;;;;15.07;7.20;;;;;;;17.69;63.72;101402.84;5008736;28;124812;-63
2021/07/01 06:51:59;;;;;;;14.57;7.07;;;;;;;17.70;63.88;101409.88;5004910;28;119211;-63
2021/07/01 06:55:02;;;;;;;14.38;6.90;;;;;;;17.69;63.78;101414.41;4927358;28;119615;-63
2021/07/01 06:57:48;;;;;;;14.32;6.95;;;;;;;17.69;63.65;101409.03;5015378;27;124623;-63
2021/07/01 07:00:20;;;;;;;16.60;7.38;;;;;;;17.68;63.90;101412.66;5004408;28;124116;-63
2021/07/01 07:02:47;;;;;;;17.45;7.28;;;;;;;17.70;63.63;101416.09;5013679;28;119551;-63
2021/07/01 07:05:17;;;;;;;12.13;7.85;;;;;;;17.70;63.94;101416.09;5015421;28;119312;-63
2021/07/01 07:07:47;;;;;;;14.98;7.55;;;;;;;17.74;63.83;101423.94;4993848;28;124300;-63
2021/07/01 07:10:19;;;;;;;15.65;6.63;;;;;;;17.76;63.83;101411.31;4985735;28;123738;-63
2021/07/01 07:12:54;;;;;;;17.58;7.90;;;;;;;17.79;63.77;101413.78;4999930;28;119249;-63
2021/07/01 07:15:29;;;;;;;;;;;;;;;17.79;63.62;101419.16;5009340;28;119340;-63
2021/07/01 07:18:03;;;;;;;14.32;7.07;;;;;;;17.81;63.76;101411.88;5010077;28;124361;-63
2021/07/01 07:20:31;;;;;;;15.18;7.05;;;;;;;17.83;63.76;101421.50;5007005;28;124296;-63
2021/07/01 07:23:04;;;;;;;13.45;6.70;;;;;;;17.86;63.91;101421.34;5006875;28;120596;-63
2021/07/01 07:25:39;;;;;;;14.80;6.78;;;;;;;17.90;64.12;101427.38;5008162;28;120541;-63
2021/07/01 07:28:09;;;;;;;14.70;7.00;;;;;;;17.95;63.92;101422.56;5006142;28;124093;-63
2021/07/01 07:30:37;;;;;;;15.40;6.93;;;;;;;17.98;63.78;101429.53;5006687;28;123885;-63
2021/07/01 07:33:08;;;;;;;13.13;7.05;;;;;;;18.00;64.08;101423.09;5010563;28;119177;-63
2021/07/01 07:35:37;;;;;;;15.82;7.90;;;;;;;18.03;64.07;101425.59;4998715;28;118915;-63
2021/07/01 07:38:08;;;;;;;15.95;8.02;;;;;;;18.07;63.87;101419.03;5016119;28;123865;-63
2021/07/01 07:40:40;;;;;;;14.30;7.55;;;;;;;18.11;63.99;101424.22;5021695;28;124390;-63
2021/07/01 07:43:13;;;;;;;15.32;7.47;;;;;;;18.13;63.86;101423.13;5014126;28;119509;-63
2021/07/01 07:45:41;;;;;;;12.68;7.65;;;;;;;18.15;63.79;101423.03;4998385;28;119335;-63
2021/07/01 07:48:08;;;;;;;14.23;7.43;;;;;;;18.15;63.77;101423.03;4998145;28;123076;-63
2021/07/01 07:50:37;;;;;;;12.57;7.90;;;;;;;18.15;63.78;101420.34;5009433;28;124206;-63
2021/07/01 07:53:11;;;;;;;11.93;7.38;;;;;;;18.16;63.84;101432.78;5010357;28;119392;-63
2021/07/01 07:55:41;;;;;;;13.85;7.20;;;;;;;18.16;63.73;101427.41;5007541;28;118054;-63
2021/07/01 07:58:13;;;;;;;15.27;7.38;;;;;;;18.16;63.62;101427.41;5012183;28;123142;-63
2021/07/01 08:00:41;;;;;;;12.27;7.20;;;;;;;18.17;63.74;101426.47;4991120;28;122871;-63
2021/07/01 08:03:10;;;;;;;13.70;6.93;;;;;;;18.17;63.69;101431.84;5008017;28;119588;-64
2021/07/01 08:05:39;;;;;;;15.15;7.90;;;;;;;18.17;63.95;101434.50;5010692;28;119390;-64
2021/07/01 08:08:11;;;;;;;16.00;7.47;;;;;;;18.17;63.90;101423.78;5045287;22;123225;-68
2021/07/01 08:10:40;;;;;;;12.82;7.32;;;;;;;18.18;63.85;101425.53;5020601;28;125438;-68
2021/07/01 08:13:08;;;;;;;12.65;7.35;;;;;;;18.21;63.80;101427.97;5017704;28;120589;-68
2021/07/01 08:15:38;;;;;;;14.05;6.72;;;;;;;18.21;63.80;101419.94;5037031;27;120219;-68
2021/07/01 08:18:07;;;;;;;11.70;6.70;;;;;;;18.21;63.79;101420.78;5022617;28;123441;-67
2021/07/01 08:20:34;;;;;;;15.40;6.68;;;;;;;18.20;63.59;101423.59;5022810;28;124028;-67
2021/07/01 08:23:02;;;;;;;15.35;6.45;;;;;;;18.20;63.77;101423.59;5030831;28;119647;-65
2021/07/01 08:25:30;;;;;;;13.80;6.88;;;;;;;18.22;63.75;101427.03;5029242;28;119370;-65
2021/07/01 08:27:58;;;;;;;16.95;6.55;;;;;;;18.21;63.46;101425.28;5027250;28;124222;-65
2021/07/01 08:30:26;;;;;;;12.45;6.55;;;;;;;18.21;63.66;101425.28;5010305;28;122978;-66
2021/07/01 08:32:56;;;;;;;15.35;6.50;;;;;;;18.20;63.71;101434.31;5030573;28;119663;-66
2021/07/01 08:35:25;;;;;;;13.23;6.32;;;;;;;18.19;63.65;101432.59;5017317;28;118824;-66
2021/07/01 08:37:57;;;;;;;14.13;5.70;;;;;;;18.19;63.66;101437.94;5012590;28;124447;-66
2021/07/01 08:40:36;;;;;;;12.15;6.43;;;;;;;18.19;63.66;101444.16;5019278;28;124243;-66
2021/07/01 08:43:07;;;;;;;11.18;6.32;;;;;;;18.21;63.76;101442.22;5026986;28;119878;-66
2021/07/01 08:45:58;;;;;;;14.23;6.78;;;;;;;18.20;63.88;101445.03;5022665;28;118991;-66
2021/07/01 08:48:41;;;;;;;10.30;5.60;;;;;;;18.21;63.83;101447.59;5027876;28;124114;-66
2021/07/01 08:51:10;;;;;;;12.95;5.90;;;;;;;18.23;63.75;101444.81;5017582;28;124946;-67
2021/07/01 08:54:12;;;;;;;12.13;5.90;;;;;;;18.25;63.79;101448.25;5016131;28;119967;-67
2021/07/01 08:56:41;;;;;;;11.73;5.75;;;;;;;18.28;64.02;101453.41;5015802;28;118771;-66
2021/07/01 08:59:10;;;;;;;11.05;6.30;;;;;;;18.29;64.03;101449.78;5014328;28;124817;-66
2021/07/01 09:01:41;;;;;;;16.42;6.55;;;;;;;18.33;64.14;101445.03;5019087;28;122949;-67
2021/07/01 09:04:11;;;;;;;13.88;6.35;;;;;;;18.34;63.77;101453.00;5016496;28;120354;-67
2021/07/01 09:06:39;;;;;;;13.10;6.38;;;;;;;18.37;63.99;101458.16;5013544;28;119800;-69
2021/07/01 09:09:09;;;;;;;12.38;5.90;;;;;;;18.38;64.12;101454.50;4997550;28;123189;-69
2021/07/01 09:11:40;;;;;;;15.30;6.65;;;;;;;18.40;64.02;101452.59;5022896;28;123616;-66
2021/07/01 09:14:10;;;;;;;16.60;6.68;;;;;;;18.43;63.85;101462.25;5012483;28;118219;-67
2021/07/01 09:16:39;;;;;;;11.88;6.80;;;;;;;18.43;63.94;101460.41;5027056;28;118519;-67
2021/07/01 09:19:07;;;;;;;11.82;6.60;;;;;;;18.45;63.96;101461.16;5028589;28;123167;-67
2021/07/01 09:21:34;;;;;;;15.85;6.90;;;;;;;18.48;63.94;101460.97;5027062;27;123937;-67
2021/07/01 09:24:04;;;;;;;14.55;6.50;;;;;;;18.51;64.05;101464.41;5029154;28;119880;-67
2021/07/01 09:26:31;;;;;;;13.88;7.10;;;;;;;18.51;63.86;101462.56;5025864;28;119496;-67
2021/07/01 09:28:58;;;;;;;13.45;6.95;;;;;;;18.51;63.96;101465.25;5026788;28;123983;-67
2021/07/01 09:31:27;;;;;;;14.38;6.78;;;;;;;18.51;63.89;101464.41;5025641;28;124534;-66
2021/07/01 09:33:55;;;;;;;13.05;6.78;;;;;;;18.52;63.86;101466.13;5030816;28;119549;-67
2021/07/01 09:36:24;;;;;;;12.05;6.45;;;;;;;18.52;63.91;101471.50;5030592;28;119380;-67
2021/07/01 09:38:54;;;;;;;10.55;6.07;;;;;;;18.48;63.89;101471.69;5024679;28;124018;-67
2021/07/01 09:41:23;;;;;;;10.90;6.40;;;;;;;18.47;63.81;101472.63;5029846;28;124434;-67
2021/07/01 09:43:51;;;;;;;9.55;6.13;;;;;;;18.44;63.61;101472.00;5026632;28;119610;-68
2021/07/01 09:46:24;;;;;;;9.90;6.07;;;;;;;18.43;63.85;101479.19;5030525;28;119853;-67
2021/07/01 09:48:52;;;;;;;10.93;5.75;;;;;;;18.44;63.74;101480.03;5022415;28;125011;-67
2021/07/01 09:51:20;;;;;;;12.15;6.05;;;;;;;18.45;63.98;101487.97;5026653;28;122988;-67
2021/07/01 09:53:53;;;;;;;14.68;6.22;;;;;;;18.46;63.92;101489.72;5024645;28;120328;-67
2021/07/01 09:56:37;;;;;;;11.45;6.22;;;;;;;18.45;63.83;101487.97;5003912;28;118888;-67
2021/07/01 09:59:13;;;;;;;11.10;5.90;;;;;;;18.45;63.97;101487.97;5023067;28;124564;-67
2021/07/01 10:01:41;;;;;;;11.63;6.10;;;;;;;18.47;63.99;101485.19;5028831;28;123878;-67
2021/07/01 10:04:09;;;;;;;11.20;6.03;;;;;;;18.51;64.29;101491.22;5011402;28;120121;-67
2021/07/01 10:06:37;;;;;;;13.98;6.38;;;;;;;18.53;64.27;101489.28;5026425;28;119509;-67
2021/07/01 10:09:09;;;;;;;12.80;6.88;;;;;;;18.55;63.98;101487.34;5025228;28;123144;-67
2021/07/01 10:11:38;;;;;;;12.18;6.82;;;;;;;18.54;63.96;101491.88;5017004;28;124046;-67
2021/07/01 10:14:08;;;;;;;12.73;6.57;;;;;;;18.56;63.96;101484.56;5030351;28;119699;-67
2021/07/01 10:16:36;;;;;;;12.32;6.65;;;;;;;18.58;64.20;101487.16;5028979;28;118158;-67
2021/07/01 10:19:07;;;;;;;12.68;7.07;;;;;;;18.59;64.19;101494.22;5028453;28;125070;-67
2021/07/01 10:21:37;;;;;;;10.65;6.47;;;;;;;18.59;64.06;101494.22;5028073;28;123901;-66
2021/07/01 10:24:15;;;;;;;14.50;6.65;;;;;;;18.61;63.99;101492.28;5009769;28;119737;-66
2021/07/01 10:26:45;;;;;;;12.23;6.32;;;;;;;18.62;64.09;101496.72;5009394;28;118095;-66
2021/07/01 10:29:14;;;;;;;13.60;6.57;;;;;;;18.62;64.20;101496.72;5016889;28;123116;-66
2021/07/01 10:31:46;;;;;;;13.10;6.25;;;;;;;18.64;64.16;101492.09;5028689;27;123659;-66
2021/07/01 10:34:14;;;;;;;11.60;6.70;;;;;;;18.67;64.10;101491.91;5010817;28;120138;-66
2021/07/01 10:36:42;;;;;;;12.45;6.55;;;;;;;18.68;63.90;101489.13;5024321;28;119687;-66
2021/07/01 10:39:09;;;;;;;15.27;6.82;;;;;;;18.71;64.13;101492.53;5027678;28;124212;-66
2021/07/01 10:41:42;;;;;;;10.73;6.35;;;;;;;18.73;64.25;101495.97;5028752;28;123761;-66
2021/07/01 10:44:22;;;;;;;11.25;6.68;;;;;;;18.74;64.09;101498.56;5014980;28;121093;-66
2021/07/01 10:46:50;;;;;;;11.95;6.70;;;;;;;18.75;64.17;101500.28;5017874;28;120315;-66
2021/07/01 10:49:29;;;;;;;11.70;6.45;;;;;;;18.75;64.00;101494.91;5022172;28;122976;-66
2021/07/01 10:51:58;;;;;;;10.95;6.47;;;;;;;18.76;64.01;101496.63;5018811;28;123719;-66
2021/07/01 10:54:32;;;;;;;10.80;6.43;;;;;;;18.77;64.11;101497.47;5010053;28;96580;-66
2021/07/01 10:57:09;;;;;;;13.48;6.68;;;;;;;18.77;64.20;101502.84;4989500;28;107417;-66
2021/07/01 10:59:53;;;;;;;13.55;6.53;;;;;;;18.77;64.28;101502.84;4975399;28;124699;-66
2021/07/01 11:02:49;;;;;;;13.35;6.35;;;;;;;18.79;63.99;101507.13;4979188;28;124719;-66
2021/07/01 11:05:36;;;;;;;11.20;6.30;;;;;;;18.79;64.25;101507.13;4971136;28;106854;-66
2021/07/01 11:08:08;;;;;;;10.93;6.50;;;;;;;18.80;64.09;101508.00;4982717;28;106944;-66
2021/07/01 11:10:38;;;;;;;13.85;6.47;;;;;;;18.80;64.11;101508.91;4982875;28;123961;-66
2021/07/01 11:13:10;;;;;;;13.63;6.65;;;;;;;18.80;64.18;101514.28;4978243;28;124653;-66
2021/07/01 11:16:00;;;;;;;12.75;6.22;;;;;;;18.78;64.06;101510.81;4983524;28;107702;-66
2021/07/01 11:18:42;;;;;;;14.55;6.68;;;;;;;18.78;63.98;101516.16;4982738;28;107849;-66
2021/07/01 11:21:12;;;;;;;13.82;6.88;;;;;;;18.78;64.05;101520.66;4979614;28;123176;-66
2021/07/01 11:23:41;;;;;;;14.50;6.85;;;;;;;18.79;64.24;101517.88;4976017;28;123864;-66
2021/07/01 11:26:30;;;;;;;13.02;6.70;;;;;;;18.78;64.18;101510.81;4985606;28;106439;-66
2021/07/01 11:29:03;;;;;;;14.88;6.85;;;;;;;18.81;64.08;101509.75;4970476;28;107296;-66
2021/07/01 11:31:35;;;;;;;12.38;6.40;;;;;;;18.80;64.31;101514.28;4978457;28;123951;-66
2021/07/01 11:34:04;;;;;;;12.98;6.57;;;;;;;18.82;64.14;101509.66;4975193;28;125941;-66
2021/07/01 11:36:32;;;;;;;16.65;6.47;;;;;;;18.83;64.25;101507.81;4974908;28;106584;-66
2021/07/01 11:39:07;;;;;;;14.15;6.80;;;;;;;18.84;64.26;101515.78;4977451;28;107272;-66